Aviation Digital Data Service (ADDS)

Output produced by METARs form (0801 UTC 20 March 2019)
found at http://www.aviationweather.gov/metar/data/
 
METAR text: VTSG 200700Z VRB06KT 9999 BKN020 36/22 Q1009 NOSIG
Conditions at: VTSG (KRABI , TH) observed 0700 UTC 20 March 2019
Temperature: 36.0°C (97°F)
Dewpoint: 22.0°C (72°F) [RH = 45%]
Pressure (altimeter): 29.79 inches Hg (1009.0 mb)
Winds: variable direction winds at 7 MPH (6 knots; 3.1 m/s)
Visibility: 6 or more miles (10+ km)
Ceiling: 2000 feet AGL
Clouds: broken clouds at 2000 feet AGL
Weather: no significant weather observed at this time

METAR text: VTSG 200600Z VRB05KT 9999 BKN020 35/22 Q1011 NOSIG
Conditions at: VTSG (KRABI , TH) observed 0600 UTC 20 March 2019
Temperature: 35.0°C (95°F)
Dewpoint: 22.0°C (72°F) [RH = 47%]
Pressure (altimeter): 29.85 inches Hg (1011.0 mb)
Winds: variable direction winds at 6 MPH (5 knots; 2.6 m/s)
Visibility: 6 or more miles (10+ km)
Ceiling: 2000 feet AGL
Clouds: broken clouds at 2000 feet AGL
Weather: no significant weather observed at this time

METAR text: VTSG 200500Z VRB04KT 9999 BKN020 35/22 Q1012 NOSIG
Conditions at: VTSG (KRABI , TH) observed 0500 UTC 20 March 2019
Temperature: 35.0°C (95°F)
Dewpoint: 22.0°C (72°F) [RH = 47%]
Pressure (altimeter): 29.88 inches Hg (1012.0 mb)
Winds: variable direction winds at 5 MPH (4 knots; 2.1 m/s)
Visibility: 6 or more miles (10+ km)
Ceiling: 2000 feet AGL
Clouds: broken clouds at 2000 feet AGL
Weather: no significant weather observed at this time

METAR text: VTSG 200400Z 06006KT 360V150 9999 BKN020 33/23 Q1013 NOSIG
Conditions at: VTSG (KRABI , TH) observed 0400 UTC 20 March 2019
Temperature: 33.0°C (91°F)
Dewpoint: 23.0°C (73°F) [RH = 56%]
Pressure (altimeter): 29.91 inches Hg (1013.0 mb)
Winds: from the ENE (60 degrees) at 7 MPH (6 knots; 3.1 m/s)
Visibility: 6 or more miles (10+ km)
Ceiling: 2000 feet AGL
Clouds: broken clouds at 2000 feet AGL
Weather: no significant weather observed at this time

METAR text: VTSG 200300Z 08007KT 040V120 9999 SCT020 31/23 Q1014 NOSIG
Conditions at: VTSG (KRABI , TH) observed 0300 UTC 20 March 2019
Temperature: 31.0°C (88°F)
Dewpoint: 23.0°C (73°F) [RH = 63%]
Pressure (altimeter): 29.94 inches Hg (1014.0 mb)
Winds: from the E (80 degrees) at 8 MPH (7 knots; 3.6 m/s)
Visibility: 6 or more miles (10+ km)
Ceiling: at least 12,000 feet AGL
Clouds: scattered clouds at 2000 feet AGL
Weather: no significant weather observed at this time

METAR text: VTSG 200200Z 10006KT 030V170 9999 FEW020 30/23 Q1013 NOSIG
Conditions at: VTSG (KRABI , TH) observed 0200 UTC 20 March 2019
Temperature: 30.0°C (86°F)
Dewpoint: 23.0°C (73°F) [RH = 66%]
Pressure (altimeter): 29.91 inches Hg (1013.0 mb)
Winds: from the E (100 degrees) at 7 MPH (6 knots; 3.1 m/s)
Visibility: 6 or more miles (10+ km)
Ceiling: at least 12,000 feet AGL
Clouds: few clouds at 2000 feet AGL
Weather: no significant weather observed at this time

METAR text: VTSG 200100Z 03004KT 350V070 9999 FEW020 28/24 Q1012 NOSIG
Conditions at: VTSG (KRABI , TH) observed 0100 UTC 20 March 2019
Temperature: 28.0°C (82°F)
Dewpoint: 24.0°C (75°F) [RH = 79%]
Pressure (altimeter): 29.88 inches Hg (1012.0 mb)
Winds: from the NNE (30 degrees) at 5 MPH (4 knots; 2.1 m/s)
Visibility: 6 or more miles (10+ km)
Ceiling: at least 12,000 feet AGL
Clouds: few clouds at 2000 feet AGL
Weather: no significant weather observed at this time

METAR text: VTSG 200000Z 04004KT 360V090 9000 NSC 24/23 Q1011 NOSIG
Conditions at: VTSG (KRABI , TH) observed 0000 UTC 20 March 2019
Temperature: 24.0°C (75°F)
Dewpoint: 23.0°C (73°F) [RH = 94%]
Pressure (altimeter): 29.85 inches Hg (1011.0 mb)
Winds: from the NE (40 degrees) at 5 MPH (4 knots; 2.1 m/s)
Visibility: 6 miles ( 9 km)
Ceiling: at least 12,000 feet AGL
Clouds: sky clear below 12,000 feet AGL
Weather: no significant weather observed at this time

METAR text: VTSG 192300Z 04004KT 9000 FEW020 24/23 Q1010 NOSIG
Conditions at: VTSG (KRABI , TH) observed 2300 UTC 19 March 2019
Temperature: 24.0°C (75°F)
Dewpoint: 23.0°C (73°F) [RH = 94%]
Pressure (altimeter): 29.82 inches Hg (1010.0 mb)
Winds: from the NE (40 degrees) at 5 MPH (4 knots; 2.1 m/s)
Visibility: 6 miles ( 9 km)
Ceiling: at least 12,000 feet AGL
Clouds: few clouds at 2000 feet AGL
Weather: no significant weather observed at this time

METAR text: VTSG 192200Z 03003KT 9000 FEW020 23/22 Q1010 NOSIG
Conditions at: VTSG (KRABI , TH) observed 2200 UTC 19 March 2019
Temperature: 23.0°C (73°F)
Dewpoint: 22.0°C (72°F) [RH = 94%]
Pressure (altimeter): 29.82 inches Hg (1010.0 mb)
Winds: from the NNE (30 degrees) at 3 MPH (3 knots; 1.5 m/s)
Visibility: 6 miles ( 9 km)
Ceiling: at least 12,000 feet AGL
Clouds: few clouds at 2000 feet AGL
Weather: no significant weather observed at this time

METAR text: VTSG 192100Z VRB01KT 9000 FEW020 23/22 Q1010 NOSIG
Conditions at: VTSG (KRABI , TH) observed 2100 UTC 19 March 2019
Temperature: 23.0°C (73°F)
Dewpoint: 22.0°C (72°F) [RH = 94%]
Pressure (altimeter): 29.82 inches Hg (1010.0 mb)
Winds: variable direction winds at 1 MPH (1 knots; 0.5 m/s)
Visibility: 6 miles ( 9 km)
Ceiling: at least 12,000 feet AGL
Clouds: few clouds at 2000 feet AGL
Weather: no significant weather observed at this time

METAR text: VTSG 192000Z 00000KT 9999 FEW020 23/22 Q1010 NOSIG
Conditions at: VTSG (KRABI , TH) observed 2000 UTC 19 March 2019
Temperature: 23.0°C (73°F)
Dewpoint: 22.0°C (72°F) [RH = 94%]
Pressure (altimeter): 29.82 inches Hg (1010.0 mb)
Winds: calm
Visibility: 6 or more miles (10+ km)
Ceiling: at least 12,000 feet AGL
Clouds: few clouds at 2000 feet AGL
Weather: no significant weather observed at this time

METAR text: VTSG 191900Z VRB02KT 9999 FEW020 24/23 Q1010 NOSIG
Conditions at: VTSG (KRABI , TH) observed 1900 UTC 19 March 2019
Temperature: 24.0°C (75°F)
Dewpoint: 23.0°C (73°F) [RH = 94%]
Pressure (altimeter): 29.82 inches Hg (1010.0 mb)
Winds: variable direction winds at 2 MPH (2 knots; 1.0 m/s)
Visibility: 6 or more miles (10+ km)
Ceiling: at least 12,000 feet AGL
Clouds: few clouds at 2000 feet AGL
Weather: no significant weather observed at this time

METAR text: VTSG 191800Z 05002KT 9999 FEW020 24/22 Q1011 NOSIG
Conditions at: VTSG (KRABI , TH) observed 1800 UTC 19 March 2019
Temperature: 24.0°C (75°F)
Dewpoint: 22.0°C (72°F) [RH = 89%]
Pressure (altimeter): 29.85 inches Hg (1011.0 mb)
Winds: from the NE (50 degrees) at 2 MPH (2 knots; 1.0 m/s)
Visibility: 6 or more miles (10+ km)
Ceiling: at least 12,000 feet AGL
Clouds: few clouds at 2000 feet AGL
Weather: no significant weather observed at this time

METAR text: VTSG 191700Z VRB02KT 9999 FEW020 26/22 Q1012 NOSIG
Conditions at: VTSG (KRABI , TH) observed 1700 UTC 19 March 2019
Temperature: 26.0°C (79°F)
Dewpoint: 22.0°C (72°F) [RH = 79%]
Pressure (altimeter): 29.88 inches Hg (1012.0 mb)
Winds: variable direction winds at 2 MPH (2 knots; 1.0 m/s)
Visibility: 6 or more miles (10+ km)
Ceiling: at least 12,000 feet AGL
Clouds: few clouds at 2000 feet AGL
Weather: no significant weather observed at this time

METAR text: VTSG 191600Z 08006KT 040V110 9999 FEW020 28/22 Q1012 NOSIG
Conditions at: VTSG (KRABI , TH) observed 1600 UTC 19 March 2019
Temperature: 28.0°C (82°F)
Dewpoint: 22.0°C (72°F) [RH = 70%]
Pressure (altimeter): 29.88 inches Hg (1012.0 mb)
Winds: from the E (80 degrees) at 7 MPH (6 knots; 3.1 m/s)
Visibility: 6 or more miles (10+ km)
Ceiling: at least 12,000 feet AGL
Clouds: few clouds at 2000 feet AGL
Weather: no significant weather observed at this time

METAR text: VTSG 191500Z 04003KT 9999 BKN025 28/22 Q1011 NOSIG
Conditions at: VTSG (KRABI , TH) observed 1500 UTC 19 March 2019
Temperature: 28.0°C (82°F)
Dewpoint: 22.0°C (72°F) [RH = 70%]
Pressure (altimeter): 29.85 inches Hg (1011.0 mb)
Winds: from the NE (40 degrees) at 3 MPH (3 knots; 1.5 m/s)
Visibility: 6 or more miles (10+ km)
Ceiling: 2500 feet AGL
Clouds: broken clouds at 2500 feet AGL
Weather: no significant weather observed at this time

METAR text: VTSG 191400Z 09005KT 040V120 9999 FEW020 29/21 Q1010 NOSIG
Conditions at: VTSG (KRABI , TH) observed 1400 UTC 19 March 2019
Temperature: 29.0°C (84°F)
Dewpoint: 21.0°C (70°F) [RH = 62%]
Pressure (altimeter): 29.82 inches Hg (1010.0 mb)
Winds: from the E (90 degrees) at 6 MPH (5 knots; 2.6 m/s)
Visibility: 6 or more miles (10+ km)
Ceiling: at least 12,000 feet AGL
Clouds: few clouds at 2000 feet AGL
Weather: no significant weather observed at this time

METAR text: VTSG 191300Z VRB02KT 9999 FEW020 28/23 Q1009 NOSIG
Conditions at: VTSG (KRABI , TH) observed 1300 UTC 19 March 2019
Temperature: 28.0°C (82°F)
Dewpoint: 23.0°C (73°F) [RH = 74%]
Pressure (altimeter): 29.79 inches Hg (1009.0 mb)
Winds: variable direction winds at 2 MPH (2 knots; 1.0 m/s)
Visibility: 6 or more miles (10+ km)
Ceiling: at least 12,000 feet AGL
Clouds: few clouds at 2000 feet AGL
Weather: no significant weather observed at this time

METAR text: VTSG 191200Z 18004KT 150V210 9999 FEW020 30/24 Q1008 NOSIG
Conditions at: VTSG (KRABI , TH) observed 1200 UTC 19 March 2019
Temperature: 30.0°C (86°F)
Dewpoint: 24.0°C (75°F) [RH = 70%]
Pressure (altimeter): 29.76 inches Hg (1008.0 mb)
Winds: from the S (180 degrees) at 5 MPH (4 knots; 2.1 m/s)
Visibility: 6 or more miles (10+ km)
Ceiling: at least 12,000 feet AGL
Clouds: few clouds at 2000 feet AGL
Weather: no significant weather observed at this time

METAR text: VTSG 191100Z 21006KT 170V310 9999 FEW020 32/24 Q1007 NOSIG
Conditions at: VTSG (KRABI , TH) observed 1100 UTC 19 March 2019
Temperature: 32.0°C (90°F)
Dewpoint: 24.0°C (75°F) [RH = 63%]
Pressure (altimeter): 29.73 inches Hg (1007.0 mb)
Winds: from the SSW (210 degrees) at 7 MPH (6 knots; 3.1 m/s)
Visibility: 6 or more miles (10+ km)
Ceiling: at least 12,000 feet AGL
Clouds: few clouds at 2000 feet AGL
Weather: no significant weather observed at this time

METAR text: VTSG 191000Z 21009KT 9999 FEW020 34/24 Q1007 NOSIG
Conditions at: VTSG (KRABI , TH) observed 1000 UTC 19 March 2019
Temperature: 34.0°C (93°F)
Dewpoint: 24.0°C (75°F) [RH = 56%]
Pressure (altimeter): 29.73 inches Hg (1007.0 mb)
Winds: from the SSW (210 degrees) at 10 MPH (9 knots; 4.6 m/s)
Visibility: 6 or more miles (10+ km)
Ceiling: at least 12,000 feet AGL
Clouds: few clouds at 2000 feet AGL
Weather: no significant weather observed at this time

METAR text: VTSG 190900Z 09004KT 020V120 9999 FEW020 36/19 Q1007 NOSIG
Conditions at: VTSG (KRABI , TH) observed 0900 UTC 19 March 2019
Temperature: 36.0°C (97°F)
Dewpoint: 19.0°C (66°F) [RH = 37%]
Pressure (altimeter): 29.73 inches Hg (1007.0 mb)
Winds: from the E (90 degrees) at 5 MPH (4 knots; 2.1 m/s)
Visibility: 6 or more miles (10+ km)
Ceiling: at least 12,000 feet AGL
Clouds: few clouds at 2000 feet AGL
Weather: no significant weather observed at this time

METAR text: VTSG 190800Z 03010KT 010V070 9999 SCT020 37/19 Q1008 NOSIG
Conditions at: VTSG (KRABI , TH) observed 0800 UTC 19 March 2019
Temperature: 37.0°C (99°F)
Dewpoint: 19.0°C (66°F) [RH = 35%]
Pressure (altimeter): 29.76 inches Hg (1008.0 mb)
Winds: from the NNE (30 degrees) at 12 MPH (10 knots; 5.1 m/s)
Visibility: 6 or more miles (10+ km)
Ceiling: at least 12,000 feet AGL
Clouds: scattered clouds at 2000 feet AGL
Weather: no significant weather observed at this time

METAR text: VTSG 190700Z 08009KT 030V120 9999 SCT020 36/20 Q1009 NOSIG
Conditions at: VTSG (KRABI , TH) observed 0700 UTC 19 March 2019
Temperature: 36.0°C (97°F)
Dewpoint: 20.0°C (68°F) [RH = 39%]
Pressure (altimeter): 29.79 inches Hg (1009.0 mb)
Winds: from the E (80 degrees) at 10 MPH (9 knots; 4.6 m/s)
Visibility: 6 or more miles (10+ km)
Ceiling: at least 12,000 feet AGL
Clouds: scattered clouds at 2000 feet AGL
Weather: no significant weather observed at this time

METAR text: VTSG 190600Z 11010KT 030V150 9999 SCT020 36/21 Q1010 NOSIG
Conditions at: VTSG (KRABI , TH) observed 0600 UTC 19 March 2019
Temperature: 36.0°C (97°F)
Dewpoint: 21.0°C (70°F) [RH = 42%]
Pressure (altimeter): 29.82 inches Hg (1010.0 mb)
Winds: from the ESE (110 degrees) at 12 MPH (10 knots; 5.1 m/s)
Visibility: 6 or more miles (10+ km)
Ceiling: at least 12,000 feet AGL
Clouds: scattered clouds at 2000 feet AGL
Weather: no significant weather observed at this time

METAR text: VTSG 190500Z 07008KT 010V120 9999 FEW020 35/22 Q1012 NOSIG
Conditions at: VTSG (KRABI , TH) observed 0500 UTC 19 March 2019
Temperature: 35.0°C (95°F)
Dewpoint: 22.0°C (72°F) [RH = 47%]
Pressure (altimeter): 29.88 inches Hg (1012.0 mb)
Winds: from the ENE (70 degrees) at 9 MPH (8 knots; 4.1 m/s)
Visibility: 6 or more miles (10+ km)
Ceiling: at least 12,000 feet AGL
Clouds: few clouds at 2000 feet AGL
Weather: no significant weather observed at this time

METAR text: VTSG 190400Z 09008KT 020V130 9999 FEW020 34/23 Q1013 NOSIG
Conditions at: VTSG (KRABI , TH) observed 0400 UTC 19 March 2019
Temperature: 34.0°C (93°F)
Dewpoint: 23.0°C (73°F) [RH = 53%]
Pressure (altimeter): 29.91 inches Hg (1013.0 mb)
Winds: from the E (90 degrees) at 9 MPH (8 knots; 4.1 m/s)
Visibility: 6 or more miles (10+ km)
Ceiling: at least 12,000 feet AGL
Clouds: few clouds at 2000 feet AGL
Weather: no significant weather observed at this time

METAR text: VTSG 190300Z 07007KT 010V120 9999 FEW020 32/23 Q1013 NOSIG
Conditions at: VTSG (KRABI , TH) observed 0300 UTC 19 March 2019
Temperature: 32.0°C (90°F)
Dewpoint: 23.0°C (73°F) [RH = 59%]
Pressure (altimeter): 29.91 inches Hg (1013.0 mb)
Winds: from the ENE (70 degrees) at 8 MPH (7 knots; 3.6 m/s)
Visibility: 6 or more miles (10+ km)
Ceiling: at least 12,000 feet AGL
Clouds: few clouds at 2000 feet AGL
Weather: no significant weather observed at this time

METAR text: VTSG 190200Z 06007KT 360V110 9999 FEW020 29/24 Q1013 NOSIG
Conditions at: VTSG (KRABI , TH) observed 0200 UTC 19 March 2019
Temperature: 29.0°C (84°F)
Dewpoint: 24.0°C (75°F) [RH = 74%]
Pressure (altimeter): 29.91 inches Hg (1013.0 mb)
Winds: from the ENE (60 degrees) at 8 MPH (7 knots; 3.6 m/s)
Visibility: 6 or more miles (10+ km)
Ceiling: at least 12,000 feet AGL
Clouds: few clouds at 2000 feet AGL
Weather: no significant weather observed at this time

METAR text: VTSG 190100Z 06005KT 030V110 8000 NSC 26/24 Q1012 NOSIG
Conditions at: VTSG (KRABI , TH) observed 0100 UTC 19 March 2019
Temperature: 26.0°C (79°F)
Dewpoint: 24.0°C (75°F) [RH = 89%]
Pressure (altimeter): 29.88 inches Hg (1012.0 mb)
Winds: from the ENE (60 degrees) at 6 MPH (5 knots; 2.6 m/s)
Visibility: 5 miles ( 8 km)
Ceiling: at least 12,000 feet AGL
Clouds: sky clear below 12,000 feet AGL
Weather: no significant weather observed at this time

METAR text: VTSG 190000Z VRB02KT 5000 BR NSC 24/23 Q1011 NOSIG
Conditions at: VTSG (KRABI , TH) observed 0000 UTC 19 March 2019
Temperature: 24.0°C (75°F)
Dewpoint: 23.0°C (73°F) [RH = 94%]
Pressure (altimeter): 29.85 inches Hg (1011.0 mb)
Winds: variable direction winds at 2 MPH (2 knots; 1.0 m/s)
Visibility: 3 miles ( 5 km)
Ceiling: at least 12,000 feet AGL
Clouds: sky clear below 12,000 feet AGL
Weather: BR  (mist)

METAR text: VTSG 182300Z 05004KT 020V090 6000 FEW020 24/23 Q1011 NOSIG
Conditions at: VTSG (KRABI , TH) observed 2300 UTC 18 March 2019
Temperature: 24.0°C (75°F)
Dewpoint: 23.0°C (73°F) [RH = 94%]
Pressure (altimeter): 29.85 inches Hg (1011.0 mb)
Winds: from the NE (50 degrees) at 5 MPH (4 knots; 2.1 m/s)
Visibility: 4 miles ( 6 km)
Ceiling: at least 12,000 feet AGL
Clouds: few clouds at 2000 feet AGL
Weather: no significant weather observed at this time

METAR text: VTSG 182200Z 05004KT 020V100 7000 FEW020 25/23 Q1010 NOSIG
Conditions at: VTSG (KRABI , TH) observed 2200 UTC 18 March 2019
Temperature: 25.0°C (77°F)
Dewpoint: 23.0°C (73°F) [RH = 89%]
Pressure (altimeter): 29.82 inches Hg (1010.0 mb)
Winds: from the NE (50 degrees) at 5 MPH (4 knots; 2.1 m/s)
Visibility: 4 miles ( 7 km)
Ceiling: at least 12,000 feet AGL
Clouds: few clouds at 2000 feet AGL
Weather: no significant weather observed at this time

METAR text: VTSG 182100Z 01005KT 7000 FEW020 25/23 Q1011 NOSIG
Conditions at: VTSG (KRABI , TH) observed 2100 UTC 18 March 2019
Temperature: 25.0°C (77°F)
Dewpoint: 23.0°C (73°F) [RH = 89%]
Pressure (altimeter): 29.85 inches Hg (1011.0 mb)
Winds: from the N (10 degrees) at 6 MPH (5 knots; 2.6 m/s)
Visibility: 4 miles ( 7 km)
Ceiling: at least 12,000 feet AGL
Clouds: few clouds at 2000 feet AGL
Weather: no significant weather observed at this time

Forecast for: VTSG (KRABI , TH)
Text: TAF VTSG 200500Z 2006/2106 08008KT 9999 FEW020
Forecast period: 0600 to 1400 UTC 20 March 2019
Forecast type: FROM: standard forecast or significant change
Winds: from the E (80 degrees) at 9 MPH (8 knots; 4.1 m/s)
Visibility: 6 or more miles 10+ km)
Ceiling: at least 12,000 feet AGL
Clouds: few clouds at 2000 feet AGL
Weather: no significant weather forecast for this period
Text: BECMG 2014/2016 VRB02KT
Forecast period: 1400 UTC 20 March 2019 to 0200 UTC 21 March 2019
Forecast type: BECOMING: Conditions expected to become as follows by 1600 UTC 20 March 2019
Winds: variable direction winds at 2 MPH (2 knots; 1.0 m/s)
Visibility: 6 or more miles 10+ km)
Ceiling: at least 12,000 feet AGL
Clouds: few clouds at 2000 feet AGL
Weather: no significant weather forecast for this period
Text: BECMG 2102/2104 08006KT
Forecast period: 0200 to 0600 UTC 21 March 2019
Forecast type: BECOMING: Conditions expected to become as follows by 0400 UTC 21 March 2019
Winds: from the E (80 degrees) at 7 MPH (6 knots; 3.1 m/s)
Visibility: 6 or more miles 10+ km)
Ceiling: at least 12,000 feet AGL
Clouds: few clouds at 2000 feet AGL
Weather: no significant weather forecast for this period